Kirksville Regional Airport
KIRK : now visible

Airfield :











YOU CAN JOIN US ON...

 
LOGIN :

Register | Disclaimer

   EN    FR    IT 

 









Legend :    VFR   Marginal VFR   IFR   Intensive IFR   Very Intensive IFR
Visi :
Ceiling :
>= 8 km
>= 3000ft
5 to 8 km
1000 to 3000 ft
1500m to 5 km
500 to 1000 ft
800 to 1500m
200 to 500 ft
< 800m
< 200 ft
Symbols :   Thunderstorms  Fog  Heavy snow  Heavy precipitations  Wind > 20 kt






- Airport Elevation : 966 ft
- IATA code : IRK


KIRK - Kirksville Regional

CURRENT METAR :
  • 260855Z AUTO 32005KT 1/4SM FZFG VV002 M08/M08 A3001 RMK AO2 SLP179 I1001 I3001 T10781083 58008

EXPIRED METARs :
  • 260821Z AUTO 30004KT 1/2SM FZFG VV002 M08/M09 A3002 RMK AO2 T10831089
  • 260816Z AUTO 30003KT 1 1/2SM BR BKN002 M09/M09 A3002 RMK AO2 T10891094
  • 260755Z AUTO 29004KT 6SM BR CLR M11/M12 A3003 RMK AO2 SLP184 I1000 T11061122
  • 260655Z AUTO 00000KT 7SM CLR M09/M11 A3004 RMK AO2 SLP187 I1000 T10941111

TAF N/A



MET'MAP, your aeronautical weather chart ! - Copyright ORBIFLY December 2007 - Disclaimer

ORBIFLY MET'MAP TEAM :

Programming & Development : Alexandra Zaïnal
Concept & original design : Baudouin d'Aumeries
Assistance for programming : Marc-Olivier Méhu
Technical & hardware support : Manuel Goepfert

Contact : metmap@orbifly.com




SOURCES & CREDITS :

   NOAA       Earth
Advisory